KRNH/RNH METAR and TAF weather

Enter ICAO airport designator
Station Type Date Time Source
KRNH METAR 2020/07/11 03:55 UTC NOAA

KRNH 110355Z AUTO 00000KT 10SM CLR 18/16 A2995 RMK AO2 T01820160


Station Type Date Time Source
KRNH Decoded METAR 2020/07/11 03:55 UTC NOAA

New Richmond, New Richmond Municipal Airport, WI, United States (KRNH) 45-08-54N 092-32-17W
Jul 10, 2020 - 11:55 PM EDT / 2020.07.11 0355 UTC
Wind: Calm:0
Visibility: 10 mile(s):0
Sky conditions: clear
Temperature: 64.8 F (18.2 C)
Dew Point: 60.8 F (16.0 C)
Relative Humidity: 86%
Pressure (altimeter): 29.95 in. Hg (1014 hPa)
ob: KRNH 110355Z AUTO 00000KT 10SM CLR 18/16 A2995 RMK AO2 T01820160
cycle: 4

Station Type Date Time Source
KRNH TAF 2020/07/10 22:06 UTC NOAA

TAF
AMD KRNH 102204Z 1022/1118 30008KT P6SM FEW060
FM110200 29004KT P6SM SKC
FM111400 30005KT P6SM FEW045 SCT150

Example: see airport list